Time;durP1;ratioP1;P1;durP2;ratioP2;P2;SDS_P1;SDS_P2;PMS_P1;PMS_P2;Temp;Humidity;BMP_temperature;BMP_pressure;BME280_temperature;BME280_humidity;BME280_pressure;Samples;Min_cycle;Max_cycle;Signal;HPM_P1;HPM_P2
2021/11/18 00:01:09;;;;;;;12.60;8.90;;;5.50;99.90;;;;;;5089730;28;20020;-68
2021/11/18 00:03:34;;;;;;;13.35;8.77;;;5.50;99.90;;;;;;5090230;28;20056;-68
2021/11/18 00:06:00;;;;;;;12.88;9.25;;;5.50;99.90;;;;;;5088356;28;20078;-68
2021/11/18 00:08:26;;;;;;;12.05;8.85;;;5.50;99.90;;;;;;5090780;28;20032;-68
2021/11/18 00:10:55;;;;;;;13.05;8.63;;;5.50;99.90;;;;;;5090466;28;20028;-68
2021/11/18 00:13:26;;;;;;;11.48;8.43;;;5.50;99.90;;;;;;5090870;28;20020;-68
2021/11/18 00:15:52;;;;;;;12.38;8.35;;;5.50;99.90;;;;;;5090056;28;20016;-68
2021/11/18 00:18:20;;;;;;;12.48;8.70;;;5.50;99.90;;;;;;5091101;28;20035;-68
2021/11/18 00:20:50;;;;;;;11.35;8.80;;;5.50;99.90;;;;;;5089984;28;20050;-68
2021/11/18 00:23:17;;;;;;;13.82;9.63;;;5.50;99.90;;;;;;5091007;28;20020;-68
2021/11/18 00:25:43;;;;;;;13.52;9.82;;;5.50;99.90;;;;;;5091210;28;20067;-68
2021/11/18 00:28:09;;;;;;;13.43;9.15;;;5.50;99.90;;;;;;5089816;28;20100;-68
2021/11/18 00:30:35;;;;;;;12.00;8.93;;;5.50;99.90;;;;;;5091532;28;20059;-68
2021/11/18 00:33:02;;;;;;;14.60;9.48;;;5.50;99.90;;;;;;5089068;28;20036;-68
2021/11/18 00:35:29;;;;;;;14.32;9.00;;;5.50;99.90;;;;;;5091309;28;20024;-68
2021/11/18 00:37:55;;;;;;;13.70;9.60;;;5.50;99.90;;;;;;5089928;28;20032;-68
2021/11/18 00:40:27;;;;;;;14.80;9.40;;;5.50;99.90;;;;;;5091288;28;20047;-68
2021/11/18 00:42:53;;;;;;;13.07;9.40;;;5.50;99.90;;;;;;5090489;28;20024;-68
2021/11/18 00:45:21;;;;;;;13.95;9.25;;;5.60;99.90;;;;;;5090483;28;20070;-68
2021/11/18 00:47:51;;;;;;;13.02;9.52;;;5.60;99.90;;;;;;5090706;28;20032;-68
2021/11/18 00:50:20;;;;;;;12.23;8.88;;;5.60;99.90;;;;;;5086216;28;20032;-68
2021/11/18 00:52:47;;;;;;;13.43;9.80;;;5.60;99.90;;;;;;5090108;28;20028;-68
2021/11/18 00:55:14;;;;;;;14.43;9.85;;;5.60;99.90;;;;;;5091008;28;20167;-68
2021/11/18 00:57:40;;;;;;;12.00;8.80;;;5.60;99.90;;;;;;5090378;28;20511;-68
2021/11/18 01:00:16;;;;;;;12.75;9.18;;;5.50;99.90;;;;;;5090592;28;20092;-68
2021/11/18 01:02:43;;;;;;;12.07;8.68;;;5.50;99.90;;;;;;5077440;28;20070;-68
2021/11/18 01:05:09;;;;;;;11.43;8.60;;;5.50;99.90;;;;;;5090053;28;20123;-68
2021/11/18 01:07:35;;;;;;;10.40;8.15;;;5.50;99.90;;;;;;5089941;28;20036;-68
2021/11/18 01:10:03;;;;;;;12.45;8.88;;;5.50;99.90;;;;;;5089939;28;20503;-68
2021/11/18 01:12:30;;;;;;;13.25;9.10;;;5.50;99.90;;;;;;5090614;28;20465;-68
2021/11/18 01:14:55;;;;;;;13.07;8.57;;;5.50;99.90;;;;;;5088499;28;20032;-68
2021/11/18 01:17:21;;;;;;;10.52;8.15;;;5.50;99.90;;;;;;5090755;28;20020;-68
2021/11/18 01:19:47;;;;;;;13.00;8.27;;;5.60;99.90;;;;;;5089676;28;20028;-68
2021/11/18 01:22:13;;;;;;;14.73;8.57;;;5.50;99.90;;;;;;5089819;28;20073;-68
2021/11/18 01:24:42;;;;;;;10.57;8.40;;;5.60;99.90;;;;;;5090321;28;20032;-68
2021/11/18 01:27:08;;;;;;;11.93;8.27;;;5.60;99.90;;;;;;5089746;28;20028;-68
2021/11/18 01:29:34;;;;;;;11.63;8.43;;;5.60;99.90;;;;;;5090771;28;20085;-68
2021/11/18 01:32:00;;;;;;;13.48;9.10;;;5.50;99.90;;;;;;5090285;28;20028;-68
2021/11/18 01:34:27;;;;;;;12.18;8.35;;;5.60;99.90;;;;;;5089539;28;20465;-68
2021/11/18 01:36:53;;;;;;;12.15;7.80;;;5.60;99.90;;;;;;5089583;28;20504;-68
2021/11/18 01:39:19;;;;;;;9.02;7.50;;;5.60;99.90;;;;;;5090056;28;20477;-68
2021/11/18 01:41:45;;;;;;;10.48;7.82;;;5.60;99.90;;;;;;5090803;28;20039;-68
2021/11/18 01:44:16;;;;;;;9.85;7.40;;;5.60;99.90;;;;;;5089777;28;20039;-68
2021/11/18 01:46:43;;;;;;;10.13;7.65;;;5.50;99.90;;;;;;5090407;28;20078;-68
2021/11/18 01:49:10;;;;;;;10.70;7.38;;;5.50;99.90;;;;;;5089086;28;20461;-68
2021/11/18 01:51:42;;;;;;;12.02;7.97;;;5.60;99.90;;;;;;5090476;28;20063;-68
2021/11/18 01:54:08;;;;;;;10.40;8.20;;;5.50;99.90;;;;;;5089215;28;20081;-68
2021/11/18 01:56:34;;;;;;;10.95;8.52;;;5.50;99.90;;;;;;5090214;28;20107;-68
2021/11/18 01:59:15;;;;;;;14.40;8.52;;;5.50;99.90;;;;;;5089701;28;20046;-68
2021/11/18 02:01:44;;;;;;;10.48;7.97;;;5.50;99.90;;;;;;5090341;28;20036;-68
2021/11/18 02:04:16;;;;;;;9.45;7.15;;;5.50;99.90;;;;;;5089454;28;20044;-68
2021/11/18 02:06:48;;;;;;;11.55;8.82;;;5.50;99.90;;;;;;5084633;28;20058;-68
2021/11/18 02:09:22;;;;;;;12.52;8.68;;;5.50;99.90;;;;;;5089133;28;20075;-67
2021/11/18 02:11:54;;;;;;;11.13;8.43;;;5.50;99.90;;;;;;5090141;28;20492;-68
2021/11/18 02:14:23;;;;;;;12.65;8.20;;;5.50;99.90;;;;;;5089993;28;20027;-68
2021/11/18 02:16:50;;;;;;;12.33;8.57;;;5.50;99.90;;;;;;5089959;28;20074;-68
2021/11/18 02:19:17;;;;;;;10.80;7.50;;;5.50;99.90;;;;;;5092754;28;20039;-68
2021/11/18 02:21:49;;;;;;;12.60;8.82;;;5.50;99.90;;;;;;5093942;28;20027;-68
2021/11/18 02:24:25;;;;;;;12.45;8.60;;;5.50;99.90;;;;;;5092800;28;20039;-68
2021/11/18 02:26:51;;;;;;;11.77;8.35;;;5.40;99.90;;;;;;5093141;28;20385;-68
2021/11/18 02:29:20;;;;;;;12.63;8.48;;;5.40;99.90;;;;;;5092931;28;20040;-68
2021/11/18 02:32:08;;;;;;;10.38;8.32;;;5.40;99.90;;;;;;5093857;28;20046;-68
2021/11/18 02:34:57;;;;;;;12.90;8.40;;;5.40;99.90;;;;;;5086910;28;20024;-68
2021/11/18 02:37:23;;;;;;;10.10;7.85;;;5.40;99.90;;;;;;5074567;28;20485;-68
2021/11/18 02:39:49;;;;;;;12.15;8.73;;;5.40;99.90;;;;;;5092024;28;20075;-68
2021/11/18 02:42:17;;;;;;;15.25;9.20;;;5.40;99.90;;;;;;5092066;28;20370;-68
2021/11/18 02:44:43;;;;;;;12.43;8.48;;;5.40;99.90;;;;;;5092782;28;20030;-69
2021/11/18 02:47:12;;;;;;;11.30;8.40;;;5.40;99.90;;;;;;5091982;28;20540;-68
2021/11/18 02:49:51;;;;;;;9.98;7.45;;;5.40;99.90;;;;;;5093407;28;20028;-68
2021/11/18 02:52:27;;;;;;;12.95;8.85;;;5.40;99.90;;;;;;5092645;28;20036;-68
2021/11/18 02:54:59;;;;;;;12.07;8.27;;;5.40;99.90;;;;;;5092124;28;20028;-68
2021/11/18 02:57:25;;;;;;;11.73;8.82;;;5.40;99.90;;;;;;5092714;28;20020;-68
2021/11/18 02:59:58;;;;;;;14.35;9.57;;;5.40;99.90;;;;;;5092530;28;20036;-68
2021/11/18 03:02:24;;;;;;;15.80;9.20;;;5.50;99.90;;;;;;5092847;28;20032;-68
2021/11/18 03:04:51;;;;;;;10.57;8.52;;;5.40;99.90;;;;;;5093267;28;20028;-68
2021/11/18 03:07:17;;;;;;;13.23;9.20;;;5.50;99.90;;;;;;5091889;28;20031;-67
2021/11/18 03:09:43;;;;;;;10.90;8.60;;;5.40;99.90;;;;;;5092999;28;20389;-68
2021/11/18 03:12:09;;;;;;;12.05;8.55;;;5.40;99.90;;;;;;5091926;28;20043;-68
2021/11/18 03:14:35;;;;;;;13.75;8.18;;;5.50;99.90;;;;;;5092859;28;20054;-68
2021/11/18 03:17:01;;;;;;;10.20;8.07;;;5.50;99.90;;;;;;5092070;28;20039;-68
2021/11/18 03:19:27;;;;;;;13.05;8.35;;;5.50;99.90;;;;;;5092790;28;20039;-68
2021/11/18 03:21:55;;;;;;;14.60;8.88;;;5.50;99.90;;;;;;5092117;28;20028;-68
2021/11/18 03:24:23;;;;;;;14.38;9.15;;;5.50;99.90;;;;;;5092548;28;20095;-68
2021/11/18 03:26:49;;;;;;;12.75;7.72;;;5.50;99.90;;;;;;5092136;28;20042;-68
2021/11/18 03:29:15;;;;;;;11.70;8.23;;;5.50;99.90;;;;;;5090988;28;20779;-68
2021/11/18 03:31:41;;;;;;;12.35;8.98;;;5.50;99.90;;;;;;5092743;28;20032;-67
2021/11/18 03:34:25;;;;;;;12.25;8.30;;;5.50;99.90;;;;;;5091541;28;20440;-68
2021/11/18 03:36:53;;;;;;;9.95;7.57;;;5.50;99.90;;;;;;5092060;28;20050;-68
2021/11/18 03:39:20;;;;;;;13.45;9.18;;;5.50;99.90;;;;;;5092368;28;20032;-68
2021/11/18 03:41:49;;;;;;;12.23;8.75;;;5.60;99.90;;;;;;5092037;28;20047;-68
2021/11/18 03:44:16;;;;;;;12.68;8.75;;;5.60;99.90;;;;;;5091786;28;20060;-68
2021/11/18 03:46:46;;;;;;;13.07;8.88;;;5.60;99.90;;;;;;5091926;28;20044;-68
2021/11/18 03:49:13;;;;;;;;;;;5.60;99.90;;;;;;5071733;28;20636;-68
2021/11/18 03:51:39;;;;;;;11.07;8.40;;;5.60;99.90;;;;;;5079194;28;19908;-68
2021/11/18 03:54:07;;;;;;;12.43;9.18;;;5.60;99.90;;;;;;5091554;28;20107;-68
2021/11/18 03:56:39;;;;;;;11.00;8.38;;;5.60;99.90;;;;;;5090113;28;20115;-68
2021/11/18 03:59:18;;;;;;;13.60;9.57;;;5.60;99.90;;;;;;5082219;28;20050;-68
2021/11/18 04:01:45;;;;;;;12.70;8.38;;;5.60;99.90;;;;;;5081277;28;20052;-68
2021/11/18 04:04:15;;;;;;;12.70;8.95;;;5.60;99.90;;;;;;5078640;28;20515;-68
2021/11/18 04:06:41;;;;;;;11.77;8.70;;;5.60;99.90;;;;;;5089912;28;20042;-68
2021/11/18 04:09:07;;;;;;;13.50;8.75;;;5.60;99.90;;;;;;5085349;28;20115;-68
2021/11/18 04:11:34;;;;;;;12.77;9.25;;;5.60;99.90;;;;;;5088590;28;20044;-68
2021/11/18 04:14:00;;;;;;;12.20;8.48;;;5.70;99.90;;;;;;5075177;28;20035;-68
2021/11/18 04:16:26;;;;;;;11.73;8.07;;;5.70;99.90;;;;;;5090478;28;20430;-68
2021/11/18 04:18:52;;;;;;;15.18;9.23;;;5.70;99.90;;;;;;5090957;28;20461;-68
2021/11/18 04:21:18;;;;;;;11.52;8.80;;;5.70;99.90;;;;;;5091134;28;20027;-68
2021/11/18 04:23:44;;;;;;;12.48;9.02;;;5.70;99.90;;;;;;5090826;28;20027;-68
2021/11/18 04:26:11;;;;;;;13.07;8.93;;;5.70;99.90;;;;;;5090542;28;20032;-68
2021/11/18 04:28:36;;;;;;;11.80;8.93;;;5.70;99.90;;;;;;5090619;28;20680;-68
2021/11/18 04:31:14;;;;;;;11.23;8.50;;;5.80;99.90;;;;;;5090372;28;20032;-67
2021/11/18 04:33:40;;;;;;;13.10;8.57;;;5.70;99.90;;;;;;5091079;28;20032;-68
2021/11/18 04:36:09;;;;;;;12.90;9.05;;;5.70;99.90;;;;;;5090870;28;20025;-68
2021/11/18 04:38:35;;;;;;;11.10;8.65;;;5.70;99.90;;;;;;5091344;28;20028;-68
2021/11/18 04:41:02;;;;;;;13.60;9.50;;;5.70;99.90;;;;;;5088956;28;20494;-68
2021/11/18 04:43:29;;;;;;;12.68;8.57;;;5.70;99.90;;;;;;5090709;28;20127;-68
2021/11/18 04:45:54;;;;;;;14.23;10.02;;;5.60;99.90;;;;;;5090293;28;20055;-68
2021/11/18 04:48:21;;;;;;;15.95;9.75;;;5.60;99.90;;;;;;5090640;28;20032;-70
2021/11/18 04:50:47;;;;;;;13.10;9.57;;;5.60;99.90;;;;;;5090972;28;20051;-68
2021/11/18 04:53:13;;;;;;;14.00;9.88;;;5.60;99.90;;;;;;5090219;28;20043;-68
2021/11/18 04:55:39;;;;;;;13.63;10.00;;;5.70;99.90;;;;;;5091151;28;20043;-68
2021/11/18 04:58:07;;;;;;;13.60;9.82;;;5.60;99.90;;;;;;5089626;28;20036;-68
2021/11/18 05:00:41;;;;;;;16.25;10.13;;;5.70;99.90;;;;;;5090233;28;20028;-68
2021/11/18 05:03:07;;;;;;;16.08;10.13;;;5.70;99.90;;;;;;5089164;28;20093;-68
2021/11/18 05:05:34;;;;;;;15.32;9.50;;;5.70;99.90;;;;;;5090633;28;20099;-68
2021/11/18 05:08:00;;;;;;;18.45;12.85;;;5.70;99.90;;;;;;5089850;28;20168;-68
2021/11/18 05:10:27;;;;;;;17.20;12.05;;;5.70;99.90;;;;;;5090555;28;20491;-68
2021/11/18 05:12:55;;;;;;;16.08;11.57;;;5.70;99.90;;;;;;5090084;28;20102;-68
2021/11/18 05:15:23;;;;;;;17.70;11.65;;;5.70;99.90;;;;;;5090613;28;20901;-68
2021/11/18 05:17:49;;;;;;;16.23;11.00;;;5.70;99.90;;;;;;5090470;28;20387;-68
2021/11/18 05:20:18;;;;;;;17.58;11.77;;;5.70;99.90;;;;;;5089652;28;20031;-68
2021/11/18 05:22:45;;;;;;;16.80;11.20;;;5.70;99.90;;;;;;5090702;28;20028;-68
2021/11/18 05:25:12;;;;;;;17.05;11.57;;;5.80;99.90;;;;;;5090040;28;20040;-68
2021/11/18 05:27:38;;;;;;;15.00;10.90;;;5.70;99.90;;;;;;5088753;28;20063;-68
2021/11/18 05:30:06;;;;;;;16.27;11.05;;;5.70;99.90;;;;;;5089930;28;20063;-68
2021/11/18 05:32:32;;;;;;;15.68;11.05;;;5.80;99.90;;;;;;5090048;28;20040;-67
2021/11/18 05:34:59;;;;;;;16.55;10.00;;;5.70;99.90;;;;;;5089952;28;20024;-68
2021/11/18 05:37:25;;;;;;;12.95;9.95;;;5.70;99.90;;;;;;5090318;28;20032;-68
2021/11/18 05:39:57;;;;;;;17.35;10.57;;;5.70;99.90;;;;;;5089701;28;20500;-68
2021/11/18 05:42:23;;;;;;;15.00;10.32;;;5.70;99.90;;;;;;5090216;28;20032;-68
2021/11/18 05:44:50;;;;;;;14.52;10.05;;;5.70;99.90;;;;;;5090444;28;20548;-67
2021/11/18 05:47:17;;;;;;;17.10;11.75;;;5.70;99.90;;;;;;5089606;28;20028;-67
2021/11/18 05:49:43;;;;;;;18.17;12.30;;;5.70;99.90;;;;;;5090465;28;20044;-68
2021/11/18 05:52:09;;;;;;;17.63;12.45;;;5.70;99.90;;;;;;5089762;28;20085;-68
2021/11/18 05:54:35;;;;;;;18.00;12.38;;;5.70;99.90;;;;;;5093848;28;20111;-68
2021/11/18 05:57:01;;;;;;;15.43;11.15;;;5.70;99.90;;;;;;5092113;28;20024;-68
2021/11/18 05:59:26;;;;;;;19.17;12.93;;;5.80;99.90;;;;;;5094309;28;20032;-68
2021/11/18 06:01:59;;;;;;;22.38;13.20;;;5.80;99.90;;;;;;5093912;28;20050;-68
2021/11/18 06:04:26;;;;;;;19.92;12.20;;;5.80;99.90;;;;;;5094005;28;20028;-68
2021/11/18 06:06:58;;;;;;;16.30;11.98;;;5.80;99.90;;;;;;5093829;28;20111;-68
2021/11/18 06:09:23;;;;;;;17.45;11.00;;;5.80;99.90;;;;;;5094326;28;20039;-67
2021/11/18 06:11:49;;;;;;;17.83;11.80;;;5.80;99.90;;;;;;5094347;28;20032;-68
2021/11/18 06:14:15;;;;;;;16.02;11.65;;;5.90;99.90;;;;;;5093324;28;20128;-68
2021/11/18 06:16:41;;;;;;;17.00;10.88;;;5.80;99.90;;;;;;5093607;28;20028;-68
2021/11/18 06:19:07;;;;;;;16.58;11.52;;;5.90;99.90;;;;;;5093109;28;20036;-68
2021/11/18 06:21:37;;;;;;;16.50;11.38;;;5.90;99.90;;;;;;5093967;28;20028;-68
2021/11/18 06:24:04;;;;;;;19.20;12.40;;;5.90;99.90;;;;;;5093165;28;20050;-68
2021/11/18 06:26:30;;;;;;;16.85;11.38;;;5.90;99.90;;;;;;5093910;28;20180;-68
2021/11/18 06:28:57;;;;;;;17.73;11.55;;;5.90;99.90;;;;;;5092632;28;20043;-68
2021/11/18 06:31:23;;;;;;;18.08;11.80;;;5.90;99.90;;;;;;5093267;28;20051;-68
2021/11/18 06:33:50;;;;;;;16.05;10.60;;;5.90;99.90;;;;;;5092443;28;20468;-68
2021/11/18 06:36:16;;;;;;;16.55;11.23;;;5.90;99.90;;;;;;5093088;28;20060;-68
2021/11/18 06:38:45;;;;;;;17.40;12.18;;;5.90;99.90;;;;;;5093370;28;20366;-68
2021/11/18 06:41:13;;;;;;;17.75;11.55;;;5.90;99.90;;;;;;5091660;28;20386;-68
2021/11/18 06:43:39;;;;;;;18.88;12.57;;;6.00;99.90;;;;;;5093298;28;20032;-68
2021/11/18 06:46:05;;;;;;;20.15;13.85;;;5.90;99.90;;;;;;5092160;28;20547;-68
2021/11/18 06:48:32;;;;;;;20.13;13.75;;;5.90;99.90;;;;;;5092718;28;20028;-68
2021/11/18 06:51:07;;;;;;;20.27;13.50;;;5.90;99.90;;;;;;5092730;28;20090;-68
2021/11/18 06:53:35;;;;;;;20.40;12.40;;;5.90;99.90;;;;;;5092962;28;20032;-68
2021/11/18 06:56:02;;;;;;;23.20;14.75;;;5.90;99.90;;;;;;5092591;28;20103;-67
2021/11/18 06:58:28;;;;;;;24.70;14.25;;;5.90;99.90;;;;;;5093003;28;20048;-64
2021/11/18 07:00:54;;;;;;;23.90;14.35;;;5.90;99.90;;;;;;5091270;28;20097;-66
2021/11/18 07:03:20;;;;;;;18.48;13.00;;;6.00;99.90;;;;;;5092278;28;20024;-65
2021/11/18 07:05:46;;;;;;;20.77;13.75;;;6.00;99.90;;;;;;5090819;28;20055;-65
2021/11/18 07:08:11;;;;;;;24.65;14.90;;;6.00;99.90;;;;;;5091567;28;20292;-65
2021/11/18 07:10:41;;;;;;;29.00;14.90;;;6.00;99.90;;;;;;5093464;28;20035;-65
2021/11/18 07:13:14;;;;;;;26.63;14.25;;;6.00;99.90;;;;;;5087995;28;20036;-65
2021/11/18 07:15:40;;;;;;;24.75;13.93;;;6.00;99.90;;;;;;5091982;28;20059;-65
2021/11/18 07:18:06;;;;;;;22.38;14.07;;;6.00;99.90;;;;;;5090712;28;20036;-65
2021/11/18 07:20:32;;;;;;;22.90;13.68;;;6.00;99.90;;;;;;5092376;28;20483;-65
2021/11/18 07:22:58;;;;;;;26.13;14.27;;;6.00;99.90;;;;;;5091555;28;20024;-65
2021/11/18 07:25:25;;;;;;;21.95;14.07;;;6.10;99.90;;;;;;5090761;28;20366;-65
2021/11/18 07:27:52;;;;;;;23.67;13.95;;;6.10;99.90;;;;;;5092066;28;20480;-65
2021/11/18 07:30:20;;;;;;;22.13;13.52;;;6.10;99.90;;;;;;5091710;28;20028;-65
2021/11/18 07:32:46;;;;;;;30.33;15.20;;;6.20;99.90;;;;;;5091944;28;20423;-65
2021/11/18 07:35:13;;;;;;;23.40;14.65;;;6.20;99.90;;;;;;5091448;28;20106;-66
2021/11/18 07:37:39;;;;;;;23.40;14.27;;;6.20;99.90;;;;;;5091886;28;20032;-70
2021/11/18 07:40:07;;;;;;;27.92;15.63;;;6.20;99.90;;;;;;5091072;28;20097;-65
2021/11/18 07:42:33;;;;;;;26.17;14.80;;;6.30;99.90;;;;;;5091318;28;20114;-64
2021/11/18 07:45:00;;;;;;;25.00;14.57;;;6.30;99.90;;;;;;5090155;28;20020;-65
2021/11/18 07:47:26;;;;;;;24.52;13.60;;;6.30;99.90;;;;;;5091372;28;20032;-65
2021/11/18 07:49:53;;;;;;;23.00;15.15;;;6.30;99.90;;;;;;5091956;28;20512;-65
2021/11/18 07:52:19;;;;;;;23.95;14.27;;;6.40;99.90;;;;;;5091084;28;20028;-65
2021/11/18 07:54:45;;;;;;;21.48;14.07;;;6.40;99.90;;;;;;5076626;28;20030;-65
2021/11/18 07:57:11;;;;;;;21.55;14.07;;;6.40;99.90;;;;;;5090591;28;20032;-65
2021/11/18 07:59:37;;;;;;;23.90;13.48;;;6.40;99.90;;;;;;5090925;28;20047;-65
2021/11/18 08:02:04;;;;;;;20.75;14.18;;;6.40;99.90;;;;;;5089018;28;20818;-65
2021/11/18 08:04:30;;;;;;;23.65;13.48;;;6.40;99.90;;;;;;5091068;28;20064;-66
2021/11/18 08:07:03;;;;;;;28.05;13.55;;;6.40;99.90;;;;;;5091124;28;20025;-65
2021/11/18 08:09:29;;;;;;;23.42;13.15;;;6.40;99.90;;;;;;5090159;28;20035;-65
2021/11/18 08:12:04;;;;;;;21.15;12.77;;;6.40;99.90;;;;;;5090380;28;20056;-66
2021/11/18 08:14:30;;;;;;;20.90;12.38;;;6.40;99.90;;;;;;5091187;28;20397;-65
2021/11/18 08:16:58;;;;;;;21.33;12.60;;;6.50;99.90;;;;;;5089957;28;20046;-66
2021/11/18 08:19:24;;;;;;;19.92;11.98;;;6.40;99.90;;;;;;5090687;28;20128;-64
2021/11/18 08:21:52;;;;;;;24.20;13.43;;;6.50;99.90;;;;;;5095628;28;20154;-64
2021/11/18 08:24:19;;;;;;;28.60;14.65;;;6.50;99.90;;;;;;5090096;28;20032;-65
2021/11/18 08:26:46;;;;;;;27.75;14.52;;;6.50;99.90;;;;;;5090742;28;20071;-65
2021/11/18 08:29:14;;;;;;;25.85;13.45;;;6.60;99.90;;;;;;5090473;28;20036;-65
2021/11/18 08:31:41;;;;;;;29.92;15.82;;;6.60;99.90;;;;;;5090677;28;20082;-65
2021/11/18 08:34:08;;;;;;;25.10;13.98;;;6.70;99.90;;;;;;5084982;28;20032;-66
2021/11/18 08:36:37;;;;;;;24.48;12.75;;;6.70;99.90;;;;;;5091406;28;20082;-66
2021/11/18 08:39:15;;;;;;;25.52;13.15;;;6.70;99.90;;;;;;5090198;28;20039;-66
2021/11/18 08:41:41;;;;;;;24.23;13.40;;;6.80;99.90;;;;;;5085784;28;20358;-66
2021/11/18 08:44:06;;;;;;;20.88;12.40;;;6.80;99.90;;;;;;5090024;28;20034;-66
2021/11/18 08:46:32;;;;;;;27.42;13.93;;;6.90;99.90;;;;;;5090159;28;20466;-66
2021/11/18 08:49:00;;;;;;;22.75;13.57;;;6.90;99.90;;;;;;5089008;28;20031;-66
2021/11/18 08:51:28;;;;;;;23.20;13.70;;;7.00;99.90;;;;;;5090032;28;20024;-65
2021/11/18 08:53:56;;;;;;;23.88;13.23;;;7.10;99.90;;;;;;5089689;28;20050;-65
2021/11/18 08:56:23;;;;;;;25.52;13.45;;;7.20;99.90;;;;;;5089607;28;20111;-64
2021/11/18 08:58:54;;;;;;;25.33;13.82;;;7.20;99.90;;;;;;5090282;28;20035;-66
2021/11/18 09:01:24;;;;;;;23.75;13.52;;;7.30;99.90;;;;;;5087613;28;20020;-65
2021/11/18 09:03:50;;;;;;;24.65;13.32;;;7.30;99.90;;;;;;5090427;28;20028;-64
2021/11/18 09:06:18;;;;;;;21.13;12.52;;;7.40;99.90;;;;;;5089634;28;20081;-65
2021/11/18 09:08:44;;;;;;;26.52;13.07;;;7.40;99.90;;;;;;5089826;28;20036;-65
2021/11/18 09:11:13;;;;;;;22.73;13.15;;;7.40;99.90;;;;;;5089113;28;20032;-65
2021/11/18 09:13:41;;;;;;;29.17;14.48;;;7.40;99.90;;;;;;5087824;28;20085;-65
2021/11/18 09:16:08;;;;;;;27.25;14.52;;;7.40;99.90;;;;;;5089864;28;20032;-65
2021/11/18 09:18:38;;;;;;;28.95;15.20;;;7.50;99.90;;;;;;5090152;28;20043;-65
2021/11/18 09:21:04;;;;;;;32.38;15.40;;;7.50;99.90;;;;;;5089855;28;20024;-65
2021/11/18 09:23:34;;;;;;;30.08;16.42;;;7.50;99.90;;;;;;5090449;28;20545;-65
2021/11/18 09:26:00;;;;;;;26.80;15.25;;;7.50;99.90;;;;;;5089987;28;20415;-65
2021/11/18 09:28:27;;;;;;;25.30;14.82;;;7.50;99.90;;;;;;5093155;28;20111;-66
2021/11/18 09:31:09;;;;;;;25.65;12.63;;;7.50;99.90;;;;;;5094944;28;20077;-66
2021/11/18 09:33:35;;;;;;;21.27;12.63;;;7.50;99.90;;;;;;5095045;28;20032;-65
2021/11/18 09:36:06;;;;;;;24.27;13.35;;;7.50;99.90;;;;;;5094366;28;20043;-66
2021/11/18 09:38:34;;;;;;;20.67;12.68;;;7.50;99.90;;;;;;5094699;28;20526;-65
2021/11/18 09:41:24;;;;;;;26.20;14.02;;;7.60;99.90;;;;;;5094392;28;20035;-65
2021/11/18 09:44:24;;;;;;;22.83;13.35;;;7.60;99.90;;;;;;5095068;28;20033;-65
2021/11/18 09:47:27;;;;;;;24.98;13.70;;;7.60;99.90;;;;;;5094535;28;20075;-65
2021/11/18 09:50:17;;;;;;;27.35;13.95;;;7.60;99.90;;;;;;5094779;28;20036;-65
2021/11/18 09:53:03;;;;;;;24.60;12.43;;;7.60;99.90;;;;;;5094910;28;20024;-65
2021/11/18 09:55:38;;;;;;;28.60;13.98;;;7.60;99.90;;;;;;5095045;28;20093;-65
2021/11/18 09:58:21;;;;;;;26.92;12.80;;;7.70;99.90;;;;;;5093738;28;20064;-65
2021/11/18 10:01:16;;;;;;;26.60;13.15;;;7.80;99.90;;;;;;5093308;28;20020;-65
2021/11/18 10:04:23;;;;;;;26.65;13.77;;;8.00;99.90;;;;;;5085045;28;20089;-65
2021/11/18 10:06:55;;;;;;;27.85;13.85;;;8.10;99.90;;;;;;5094091;28;20381;-65
2021/11/18 10:09:23;;;;;;;29.52;13.73;;;8.20;99.90;;;;;;5093665;28;20036;-65
2021/11/18 10:11:55;;;;;;;25.70;14.00;;;8.20;99.90;;;;;;5092872;28;20453;-65
2021/11/18 10:14:39;;;;;;;28.10;14.88;;;8.40;99.90;;;;;;5093984;28;20097;-65
2021/11/18 10:17:22;;;;;;;27.02;13.98;;;8.50;99.90;;;;;;5093629;28;20027;-65
2021/11/18 10:19:52;;;;;;;23.55;13.25;;;8.60;99.90;;;;;;5094197;28;20035;-65
2021/11/18 10:22:23;;;;;;;21.23;12.65;;;8.70;99.90;;;;;;5093465;28;20020;-65
2021/11/18 10:24:53;;;;;;;25.77;12.90;;;8.80;99.90;;;;;;5094356;28;20488;-65
2021/11/18 10:27:36;;;;;;;29.70;13.27;;;9.00;99.90;;;;;;5093367;28;20060;-65
2021/11/18 10:30:08;;;;;;;22.85;12.50;;;9.20;99.90;;;;;;5093221;28;20036;-65
2021/11/18 10:32:53;;;;;;;24.23;13.73;;;9.30;99.90;;;;;;5093873;28;20487;-65
2021/11/18 10:35:29;;;;;;;24.65;13.05;;;9.40;99.90;;;;;;5092972;28;20063;-65
2021/11/18 10:38:31;;;;;;;22.45;12.73;;;9.50;99.90;;;;;;5094033;28;20039;-66
2021/11/18 10:41:16;;;;;;;18.15;11.00;;;9.70;99.90;;;;;;5090156;28;20032;-65
2021/11/18 10:43:43;;;;;;;21.33;10.98;;;9.70;99.90;;;;;;5073763;28;20032;-65
2021/11/18 10:46:31;;;;;;;20.40;11.88;;;9.80;99.90;;;;;;5072152;28;20123;-65
2021/11/18 10:48:59;;;;;;;21.52;12.05;;;9.80;99.90;;;;;;5073271;28;20032;-65
2021/11/18 10:51:44;;;;;;;24.02;11.82;;;9.80;99.90;;;;;;5073219;28;20385;-65
2021/11/18 10:54:14;;;;;;;18.67;10.38;;;9.80;99.90;;;;;;5072775;28;20119;-66
2021/11/18 10:56:40;;;;;;;17.05;10.38;;;9.70;99.90;;;;;;5073806;28;20033;-66
2021/11/18 10:59:12;;;;;;;16.40;10.18;;;9.70;99.90;;;;;;5089868;28;20036;-66
2021/11/18 11:01:44;;;;;;;24.73;12.07;;;9.70;99.90;;;;;;5093563;28;20077;-66
2021/11/18 11:04:31;;;;;;;25.60;13.07;;;9.70;99.90;;;;;;5093048;28;20107;-66
2021/11/18 11:06:59;;;;;;;18.48;10.77;;;9.70;99.90;;;;;;5092810;28;20065;-66
2021/11/18 11:09:38;;;;;;;16.73;10.77;;;9.70;99.90;;;;;;5093425;28;20465;-66
2021/11/18 11:12:09;;;;;;;18.80;10.90;;;9.80;99.90;;;;;;5092489;28;20032;-66
2021/11/18 11:15:02;;;;;;;20.30;11.98;;;9.80;99.90;;;;;;5092902;28;20422;-66
2021/11/18 11:17:34;;;;;;;24.30;13.32;;;9.90;99.90;;;;;;5093244;28;20036;-66
2021/11/18 11:20:14;;;;;;;18.50;11.40;;;10.00;99.90;;;;;;5092038;28;20471;-66
2021/11/18 11:23:31;;;;;;;21.23;12.55;;;9.90;99.90;;;;;;5092908;28;20032;-66
2021/11/18 11:26:17;;;;;;;20.98;12.25;;;10.00;99.90;;;;;;5092072;28;20032;-67
2021/11/18 11:29:22;;;;;;;22.08;12.88;;;10.00;99.90;;;;;;5092576;28;20119;-66
2021/11/18 11:32:04;;;;;;;22.05;12.80;;;10.00;99.90;;;;;;5092486;28;20028;-67
2021/11/18 11:35:03;;;;;;;22.90;12.05;;;10.10;99.90;;;;;;5092048;28;20024;-67
2021/11/18 11:37:54;;;;;;;26.00;12.52;;;10.00;99.90;;;;;;5091847;28;20032;-67
2021/11/18 11:40:26;;;;;;;21.98;12.60;;;10.10;99.90;;;;;;5091538;28;20036;-66
2021/11/18 11:43:02;;;;;;;26.30;13.05;;;10.10;99.90;;;;;;5091771;28;20036;-68
2021/11/18 11:45:41;;;;;;;25.05;14.30;;;10.00;99.90;;;;;;5092100;28;20051;-69
2021/11/18 11:48:22;;;;;;;25.60;13.90;;;10.00;99.90;;;;;;5091774;28;20031;-68
2021/11/18 11:51:27;;;;;;;20.88;12.43;;;9.90;99.90;;;;;;5091610;28;20032;-68
2021/11/18 11:54:18;;;;;;;26.02;13.90;;;9.80;99.90;;;;;;5092114;28;20440;-69
2021/11/18 11:57:16;;;;;;;24.33;13.57;;;9.80;99.90;;;;;;5092692;28;20479;-68
2021/11/18 11:59:46;;;;;;;22.42;12.75;;;9.70;99.90;;;;;;5050553;28;20074;-69
2021/11/18 12:02:21;;;;;;;;;;;9.70;99.90;;;;;;5088671;28;20108;-69
2021/11/18 12:04:52;;;;;;;29.30;13.70;;;9.60;99.90;;;;;;5092070;28;19908;-68
2021/11/18 12:07:40;;;;;;;22.90;12.85;;;9.60;99.90;;;;;;5090935;28;20028;-67
2021/11/18 12:10:34;;;;;;;24.25;14.05;;;9.40;99.90;;;;;;5089801;28;20055;-68
2021/11/18 12:13:07;;;;;;;21.42;13.20;;;9.30;99.90;;;;;;5089363;28;20031;-66
2021/11/18 12:15:46;;;;;;;25.30;12.82;;;9.20;99.90;;;;;;5090925;28;20492;-67
2021/11/18 12:18:24;;;;;;;19.05;12.23;;;9.10;99.90;;;;;;5090631;28;20047;-67
2021/11/18 12:20:50;;;;;;;17.40;11.50;;;9.10;99.90;;;;;;5091005;28;20084;-66
2021/11/18 12:23:18;;;;;;;18.15;11.80;;;9.10;99.90;;;;;;5089007;28;20031;-67
2021/11/18 12:25:48;;;;;;;16.77;11.95;;;9.00;99.90;;;;;;5089744;28;20126;-67
2021/11/18 12:28:17;;;;;;;17.60;11.20;;;8.90;99.90;;;;;;5085303;28;20048;-67
2021/11/18 12:31:02;;;;;;;16.33;10.85;;;8.80;99.90;;;;;;5091320;28;20060;-67
2021/11/18 12:33:27;;;;;;;14.52;10.48;;;8.80;99.90;;;;;;5091207;28;20449;-67
2021/11/18 12:36:20;;;;;;;23.30;10.95;;;8.80;99.90;;;;;;5091116;28;20051;-66
2021/11/18 12:38:54;;;;;;;17.38;10.63;;;8.80;99.90;;;;;;5091268;28;20469;-67
2021/11/18 12:41:38;;;;;;;16.38;8.98;;;8.90;99.90;;;;;;5078631;28;20035;-67
2021/11/18 12:44:16;;;;;;;16.70;10.27;;;9.00;99.90;;;;;;5090683;28;20060;-67
2021/11/18 12:47:09;;;;;;;12.15;9.18;;;9.00;99.90;;;;;;5090333;28;20091;-66
2021/11/18 12:49:37;;;;;;;13.38;9.38;;;9.10;99.90;;;;;;5091443;28;20036;-67
2021/11/18 12:52:06;;;;;;;14.13;9.68;;;9.20;99.90;;;;;;5087770;28;20034;-68
2021/11/18 12:54:37;;;;;;;12.85;9.23;;;9.30;99.90;;;;;;5088914;28;20020;-67
2021/11/18 12:57:27;;;;;;;13.43;8.98;;;9.40;99.90;;;;;;5089488;28;20488;-66
2021/11/18 13:00:05;;;;;;;12.50;8.50;;;9.50;99.90;;;;;;5087912;28;20060;-65